createdAt,value
2018-09-08T00:00:57.284Z,12.90
2018-09-08T00:03:38.143Z,12.98
2018-09-08T00:06:09.756Z,12.99
2018-09-08T00:08:38.804Z,13.03
2018-09-08T00:11:07.953Z,13.10
2018-09-08T00:13:37.024Z,13.18
2018-09-08T00:16:11.269Z,13.20
2018-09-08T00:18:45.483Z,13.25
2018-09-08T00:21:19.356Z,13.25
2018-09-08T00:24:00.646Z,13.19
2018-09-08T00:26:33.589Z,13.13
2018-09-08T00:29:07.592Z,13.10
2018-09-08T00:31:36.558Z,13.09
2018-09-08T00:34:05.705Z,13.08
2018-09-08T00:36:34.716Z,13.11
2018-09-08T00:39:03.742Z,13.16
2018-09-08T00:41:32.784Z,13.13
2018-09-08T00:44:01.710Z,13.05
2018-09-08T00:46:30.669Z,12.91
2018-09-08T00:48:59.617Z,12.83
2018-09-08T00:51:28.750Z,12.77
2018-09-08T00:53:58.873Z,12.80
2018-09-08T00:56:28.614Z,12.91
2018-09-08T00:59:03.964Z,12.94
2018-09-08T01:01:34.210Z,12.98
2018-09-08T01:04:03.211Z,13.05
2018-09-08T01:06:32.305Z,13.00
2018-09-08T01:09:01.300Z,12.93
2018-09-08T01:11:30.247Z,12.79
2018-09-08T01:14:02.832Z,12.64
2018-09-08T01:16:31.790Z,12.48
2018-09-08T01:19:00.670Z,12.39
2018-09-08T01:21:31.584Z,12.36
2018-09-08T01:24:01.157Z,12.35
2018-09-08T01:26:30.014Z,12.30
2018-09-08T01:28:59.057Z,12.20
2018-09-08T01:31:27.992Z,12.06
2018-09-08T01:33:56.927Z,11.98
2018-09-08T01:36:25.884Z,11.89
2018-09-08T01:38:54.781Z,11.80
2018-09-08T01:41:23.677Z,11.72
2018-09-08T01:43:52.573Z,11.67
2018-09-08T01:46:21.449Z,11.68
2018-09-08T01:48:50.402Z,11.69
2018-09-08T01:51:19.405Z,11.64
2018-09-08T01:53:48.248Z,11.53
2018-09-08T01:56:17.252Z,11.55
2018-09-08T01:58:46.103Z,11.50
2018-09-08T02:01:15.117Z,11.39
2018-09-08T02:03:43.832Z,11.33
2018-09-08T02:06:12.812Z,11.36
2018-09-08T02:08:41.785Z,11.32
2018-09-08T02:11:10.612Z,11.27
2018-09-08T02:13:39.425Z,11.16
2018-09-08T02:16:08.402Z,11.16
2018-09-08T02:18:37.296Z,11.14
2018-09-08T02:21:06.705Z,11.13
2018-09-08T02:23:35.687Z,11.13
2018-09-08T02:26:04.597Z,11.09
2018-09-08T02:28:33.982Z,11.08
2018-09-08T02:31:03.244Z,11.06
2018-09-08T02:33:35.807Z,11.03
2018-09-08T02:36:04.772Z,11.10
2018-09-08T02:38:33.758Z,11.02
2018-09-08T02:41:03.265Z,10.97
2018-09-08T02:43:32.186Z,11.01
2018-09-08T02:46:01.028Z,10.99
2018-09-08T02:48:29.869Z,10.92
2018-09-08T02:50:57.384Z,10.90
2018-09-08T02:53:24.866Z,10.88
2018-09-08T02:55:52.382Z,10.94
2018-09-08T02:58:19.845Z,10.91
2018-09-08T03:00:47.344Z,10.90
2018-09-08T03:03:14.803Z,10.86
2018-09-08T03:05:42.264Z,10.87
2018-09-08T03:08:09.754Z,10.83
2018-09-08T03:10:37.250Z,10.87
2018-09-08T03:13:04.694Z,10.99
2018-09-08T03:15:32.188Z,11.03
2018-09-08T03:17:59.691Z,11.14
2018-09-08T03:20:27.134Z,11.11
2018-09-08T03:22:54.729Z,11.09
2018-09-08T03:25:22.200Z,11.11
2018-09-08T03:27:49.707Z,11.01
2018-09-08T03:30:17.164Z,10.93
2018-09-08T03:32:44.648Z,10.84
2018-09-08T03:35:12.082Z,10.78
2018-09-08T03:37:39.559Z,10.72
2018-09-08T03:40:06.972Z,10.68
2018-09-08T03:42:34.430Z,10.58
2018-09-08T03:45:01.881Z,10.51
2018-09-08T03:47:29.391Z,10.43
2018-09-08T03:49:56.912Z,10.33
2018-09-08T03:52:24.424Z,10.28
2018-09-08T03:54:51.858Z,10.27
2018-09-08T03:57:19.349Z,10.22
2018-09-08T03:59:46.861Z,10.18
2018-09-08T04:02:14.319Z,10.15
2018-09-08T04:04:43.253Z,10.08
2018-09-08T04:07:12.228Z,10.01
2018-09-08T04:09:41.017Z,9.97
2018-09-08T04:12:10.071Z,9.91
2018-09-08T04:14:38.968Z,9.85
2018-09-08T04:17:08.001Z,9.75
2018-09-08T04:19:36.965Z,9.65
2018-09-08T04:22:05.984Z,9.58
2018-09-08T04:24:34.876Z,9.54
2018-09-08T04:27:03.735Z,9.51
2018-09-08T04:29:32.718Z,9.47
2018-09-08T04:32:01.566Z,9.44
2018-09-08T04:34:30.450Z,9.44
2018-09-08T04:36:59.335Z,9.43
2018-09-08T04:39:28.278Z,9.41
2018-09-08T04:41:57.345Z,9.38
2018-09-08T04:44:28.286Z,9.34
2018-09-08T04:46:57.296Z,9.34
2018-09-08T04:49:26.235Z,9.34
2018-09-08T04:51:55.145Z,9.33
2018-09-08T04:54:24.201Z,9.39
2018-09-08T04:56:53.144Z,9.44
2018-09-08T04:59:22.076Z,9.47
2018-09-08T05:01:51.057Z,9.48
2018-09-08T05:04:19.884Z,9.49
2018-09-08T05:06:48.747Z,9.54
2018-09-08T05:09:17.761Z,9.64
2018-09-08T05:11:47.969Z,9.68
2018-09-08T05:14:16.851Z,9.69
2018-09-08T05:16:45.776Z,9.72
2018-09-08T05:19:14.740Z,9.78
2018-09-08T05:21:43.559Z,9.82
2018-09-08T05:24:12.527Z,9.83
2018-09-08T05:26:41.314Z,9.84
2018-09-08T05:29:10.245Z,9.87
2018-09-08T05:31:39.146Z,9.87
2018-09-08T05:34:08.179Z,9.89
2018-09-08T05:36:37.121Z,9.92
2018-09-08T05:39:07.311Z,9.99
2018-09-08T05:41:36.272Z,10.05
2018-09-08T05:44:05.216Z,10.11
2018-09-08T05:46:34.152Z,10.15
2018-09-08T05:49:03.093Z,10.18
2018-09-08T05:51:32.005Z,10.20
2018-09-08T05:54:00.846Z,10.26
2018-09-08T05:56:29.786Z,10.37
2018-09-08T05:58:58.803Z,10.45
2018-09-08T06:01:27.776Z,10.57
2018-09-08T06:03:56.708Z,10.62
2018-09-08T06:06:25.557Z,10.70
2018-09-08T06:08:54.405Z,10.77
2018-09-08T06:11:23.214Z,10.87
2018-09-08T06:13:52.295Z,10.99
2018-09-08T06:16:21.107Z,11.09
2018-09-08T06:18:50.055Z,11.16
2018-09-08T06:21:18.965Z,11.28
2018-09-08T06:23:48.488Z,11.39
2018-09-08T06:26:17.276Z,11.51
2018-09-08T06:28:46.370Z,11.61
2018-09-08T06:31:15.281Z,11.75
2018-09-08T06:33:44.078Z,11.91
2018-09-08T06:36:13.048Z,12.06
2018-09-08T06:38:41.961Z,12.18
2018-09-08T06:41:10.811Z,12.34
2018-09-08T06:43:39.772Z,12.36
2018-09-08T06:46:08.738Z,12.45
2018-09-08T06:48:37.662Z,12.55
2018-09-08T06:51:06.691Z,12.63
2018-09-08T06:53:35.604Z,12.70
2018-09-08T06:56:04.528Z,12.76
2018-09-08T06:58:33.421Z,12.85
2018-09-08T07:01:02.253Z,12.86
2018-09-08T07:03:31.300Z,13.00
2018-09-08T07:06:00.271Z,13.14
2018-09-08T07:08:29.200Z,13.19
2018-09-08T07:10:58.041Z,13.42
2018-09-08T07:13:26.996Z,13.64
2018-09-08T07:15:55.966Z,13.89
2018-09-08T07:18:24.922Z,14.20
2018-09-08T07:20:53.924Z,14.48
2018-09-08T07:23:22.716Z,14.61
2018-09-08T07:25:51.744Z,14.62
2018-09-08T07:28:20.692Z,14.73
2018-09-08T07:30:49.692Z,14.76
2018-09-08T07:33:18.603Z,14.75
2018-09-08T07:35:47.645Z,14.80
2018-09-08T07:38:16.625Z,14.82
2018-09-08T07:40:45.524Z,14.82
2018-09-08T07:43:14.356Z,14.80
2018-09-08T07:45:43.195Z,14.78
2018-09-08T07:48:12.133Z,14.71
2018-09-08T07:50:41.106Z,14.59
2018-09-08T07:53:10.111Z,14.59
2018-09-08T07:55:39.162Z,14.50
2018-09-08T07:58:08.184Z,14.51
2018-09-08T08:00:37.157Z,14.72
2018-09-08T08:03:05.996Z,14.79
2018-09-08T08:05:35.007Z,14.82
2018-09-08T08:08:03.895Z,14.88
2018-09-08T08:10:32.953Z,15.04
2018-09-08T08:13:02.001Z,15.26
2018-09-08T08:15:31.052Z,15.43
2018-09-08T08:18:00.091Z,15.45
2018-09-08T08:20:28.984Z,15.43
2018-09-08T08:22:57.920Z,15.39
2018-09-08T08:25:26.939Z,15.41
2018-09-08T08:27:55.760Z,15.49
2018-09-08T08:30:24.732Z,15.49
2018-09-08T08:32:53.717Z,15.62
2018-09-08T08:35:22.801Z,15.75
2018-09-08T08:37:51.867Z,15.97
2018-09-08T08:40:20.856Z,16.25
2018-09-08T08:42:49.860Z,16.42
2018-09-08T08:45:18.816Z,16.60
2018-09-08T08:47:47.799Z,16.78
2018-09-08T08:50:27.844Z,16.84
2018-09-08T08:53:07.726Z,16.98
2018-09-08T08:55:36.785Z,17.08
2018-09-08T08:58:05.794Z,17.14
2018-09-08T09:00:34.802Z,17.38
2018-09-08T09:03:03.695Z,17.69
2018-09-08T09:05:32.750Z,17.94
2018-09-08T09:08:01.740Z,17.98
2018-09-08T09:10:30.717Z,17.98
2018-09-08T09:12:59.708Z,18.03
2018-09-08T09:15:29.024Z,18.10
2018-09-08T09:17:57.752Z,18.22
2018-09-08T09:20:37.781Z,18.17
2018-09-08T09:23:18.059Z,18.15
2018-09-08T09:25:46.842Z,18.31
2018-09-08T09:28:15.836Z,18.47
2018-09-08T09:30:44.887Z,18.66
2018-09-08T09:33:13.823Z,18.73
2018-09-08T09:35:42.768Z,18.80
2018-09-08T09:38:11.687Z,18.95
2018-09-08T09:40:40.632Z,19.10
2018-09-08T09:43:09.738Z,19.11
2018-09-08T09:45:38.700Z,19.29
2018-09-08T09:48:07.735Z,18.96
2018-09-08T09:50:36.723Z,19.10
2018-09-08T09:53:05.738Z,19.43
2018-09-08T09:55:34.732Z,19.78
2018-09-08T09:58:03.728Z,19.94
2018-09-08T10:00:37.669Z,19.93
2018-09-08T10:03:07.930Z,20.09
2018-09-08T10:05:37.424Z,19.95
2018-09-08T10:08:06.432Z,19.93
2018-09-08T10:10:35.411Z,19.96
2018-09-08T10:13:04.364Z,20.30
2018-09-08T10:15:33.412Z,20.41
2018-09-08T10:18:02.364Z,20.34
2018-09-08T10:20:31.236Z,20.16
2018-09-08T10:23:00.344Z,20.22
2018-09-08T10:25:30.180Z,20.30
2018-09-08T10:27:59.060Z,20.81
2018-09-08T10:30:27.987Z,21.16
2018-09-08T10:32:57.032Z,21.45
2018-09-08T10:35:26.013Z,21.65
2018-09-08T10:37:54.985Z,21.86
2018-09-08T10:40:24.009Z,21.97
2018-09-08T10:42:52.861Z,21.95
2018-09-08T10:45:21.830Z,21.33
2018-09-08T10:47:50.864Z,20.79
2018-09-08T10:50:19.858Z,20.62
2018-09-08T10:52:49.646Z,20.69
2018-09-08T10:55:18.553Z,20.78
2018-09-08T10:57:47.557Z,20.60
2018-09-08T11:00:16.953Z,19.88
2018-09-08T11:02:46.169Z,19.57
2018-09-08T11:05:14.868Z,19.41
2018-09-08T11:07:43.859Z,19.22
2018-09-08T11:10:12.876Z,19.46
2018-09-08T11:12:41.833Z,19.98
2018-09-08T11:15:11.219Z,20.48
2018-09-08T11:17:40.241Z,20.60
2018-09-08T11:20:09.643Z,20.75
2018-09-08T11:22:38.717Z,20.94
2018-09-08T11:25:07.798Z,21.33
2018-09-08T11:27:36.921Z,21.46
2018-09-08T11:30:06.401Z,21.17
2018-09-08T11:32:35.392Z,21.07
2018-09-08T11:35:04.462Z,20.89
2018-09-08T11:37:33.332Z,20.92
2018-09-08T11:40:02.246Z,21.09
2018-09-08T11:42:31.171Z,21.08
2018-09-08T11:45:00.093Z,21.09
2018-09-08T11:47:29.058Z,20.54
2018-09-08T11:49:58.064Z,20.78
2018-09-08T11:52:26.915Z,21.02
2018-09-08T11:54:55.880Z,21.14
2018-09-08T11:57:24.820Z,21.46
2018-09-08T11:59:53.777Z,21.79
2018-09-08T12:02:22.707Z,22.17
2018-09-08T12:04:51.669Z,21.66
2018-09-08T12:07:20.656Z,21.91
2018-09-08T12:09:49.495Z,21.78
2018-09-08T12:12:18.484Z,21.89
2018-09-08T12:14:47.475Z,22.06
2018-09-08T12:17:16.457Z,22.32
2018-09-08T12:19:45.519Z,22.31
2018-09-08T12:22:14.553Z,21.79
2018-09-08T12:24:43.512Z,22.02
2018-09-08T12:27:12.464Z,22.04
2018-09-08T12:29:41.424Z,22.49
2018-09-08T12:32:10.346Z,22.22
2018-09-08T12:34:39.235Z,22.84
2018-09-08T12:37:08.147Z,23.52
2018-09-08T12:39:37.003Z,23.23
2018-09-08T12:42:05.972Z,23.25
2018-09-08T12:44:34.995Z,23.24
2018-09-08T12:47:03.960Z,23.53
2018-09-08T12:49:32.979Z,23.45
2018-09-08T12:52:02.014Z,23.30
2018-09-08T12:54:30.994Z,22.82
2018-09-08T12:57:00.038Z,23.07
2018-09-08T12:59:29.028Z,23.94
2018-09-08T13:01:57.909Z,24.64
2018-09-08T13:04:27.056Z,24.60
2018-09-08T13:06:56.000Z,24.45
2018-09-08T13:09:24.921Z,24.38
2018-09-08T13:11:54.074Z,25.07
2018-09-08T13:14:23.433Z,27.60
2018-09-08T13:16:52.425Z,30.11
2018-09-08T13:19:21.321Z,28.67
2018-09-08T13:21:50.351Z,27.98
2018-09-08T13:24:19.346Z,28.00
2018-09-08T13:26:48.330Z,29.00
2018-09-08T13:29:17.379Z,27.01
2018-09-08T13:31:46.391Z,25.60
2018-09-08T13:34:15.437Z,23.55
2018-09-08T13:36:44.409Z,23.09
2018-09-08T13:39:13.324Z,22.83
2018-09-08T13:41:42.304Z,22.75
2018-09-08T13:44:11.204Z,22.73
2018-09-08T13:46:40.115Z,22.72
2018-09-08T13:49:09.007Z,22.47
2018-09-08T13:51:38.087Z,22.49
2018-09-08T13:54:07.086Z,22.51
2018-09-08T13:56:36.154Z,22.86
2018-09-08T13:59:05.164Z,23.16
2018-09-08T14:01:34.200Z,23.61
2018-09-08T14:04:03.217Z,23.57
2018-09-08T14:06:32.053Z,24.00
2018-09-08T14:09:01.133Z,24.64
2018-09-08T14:11:30.106Z,25.79
2018-09-08T14:13:59.139Z,25.62
2018-09-08T14:16:28.059Z,24.77
2018-09-08T14:18:57.015Z,24.50
2018-09-08T14:21:25.994Z,24.23
2018-09-08T14:23:54.931Z,24.13
2018-09-08T14:26:23.971Z,23.94
2018-09-08T14:28:53.006Z,23.81
2018-09-08T14:31:22.057Z,23.51
2018-09-08T14:33:51.009Z,23.25
2018-09-08T14:36:19.985Z,23.18
2018-09-08T14:38:49.016Z,22.92
2018-09-08T14:41:17.996Z,22.55
2018-09-08T14:43:46.893Z,22.47
2018-09-08T14:46:15.817Z,22.57
2018-09-08T14:48:46.844Z,22.46
2018-09-08T14:51:15.888Z,22.29
2018-09-08T14:53:44.864Z,22.22
2018-09-08T14:56:13.822Z,21.87
2018-09-08T14:58:42.858Z,21.42
2018-09-08T15:01:11.860Z,21.26
2018-09-08T15:03:40.872Z,21.07
2018-09-08T15:06:09.737Z,21.13
2018-09-08T15:08:38.632Z,20.90
2018-09-08T15:11:07.698Z,20.70
2018-09-08T15:13:36.668Z,20.62
2018-09-08T15:16:05.769Z,20.52
2018-09-08T15:18:34.592Z,20.47
2018-09-08T15:21:03.661Z,20.41
2018-09-08T15:23:32.524Z,20.30
2018-09-08T15:26:01.603Z,20.15
2018-09-08T15:28:30.579Z,19.98
2018-09-08T15:30:59.591Z,19.88
2018-09-08T15:33:28.462Z,19.76
2018-09-08T15:35:58.127Z,19.71
2018-09-08T15:38:27.073Z,19.62
2018-09-08T15:40:56.020Z,19.55
2018-09-08T15:43:25.016Z,19.54
2018-09-08T15:45:54.985Z,19.56
2018-09-08T15:48:23.957Z,19.53
2018-09-08T15:50:52.823Z,19.55
2018-09-08T15:53:21.816Z,19.63
2018-09-08T15:55:50.815Z,19.82
2018-09-08T15:58:19.692Z,19.94
2018-09-08T16:00:48.678Z,19.97
2018-09-08T16:03:17.585Z,19.99
2018-09-08T16:05:46.548Z,20.00
2018-09-08T16:08:15.548Z,20.00
2018-09-08T16:10:44.534Z,19.94
2018-09-08T16:13:13.447Z,19.92
2018-09-08T16:15:42.482Z,19.84
2018-09-08T16:18:11.429Z,19.83
2018-09-08T16:20:40.317Z,19.84
2018-09-08T16:23:09.283Z,19.90
2018-09-08T16:25:38.305Z,19.98
2018-09-08T16:28:07.252Z,20.07
2018-09-08T16:30:36.313Z,20.07
2018-09-08T16:33:05.264Z,20.02
2018-09-08T16:35:34.309Z,19.92
2018-09-08T16:38:03.297Z,19.79
2018-09-08T16:40:32.232Z,19.64
2018-09-08T16:43:01.113Z,19.51
2018-09-08T16:45:30.091Z,19.42
2018-09-08T16:48:01.032Z,19.33
2018-09-08T16:50:30.005Z,19.21
2018-09-08T16:52:58.930Z,19.18
2018-09-08T16:55:27.966Z,19.13
2018-09-08T16:58:00.103Z,19.09
2018-09-08T17:00:29.124Z,19.04
2018-09-08T17:02:58.026Z,18.99
2018-09-08T17:05:26.997Z,18.95
2018-09-08T17:07:55.954Z,18.86
2018-09-08T17:10:24.966Z,18.80
2018-09-08T17:12:53.944Z,18.72
2018-09-08T17:15:23.006Z,18.72
2018-09-08T17:17:51.964Z,18.66
2018-09-08T17:20:20.886Z,18.60
2018-09-08T17:22:49.807Z,18.52
2018-09-08T17:25:18.861Z,18.48
2018-09-08T17:27:48.733Z,18.37
2018-09-08T17:30:17.761Z,18.29
2018-09-08T17:32:46.710Z,18.21
2018-09-08T17:35:15.604Z,18.15
2018-09-08T17:37:44.501Z,18.13
2018-09-08T17:40:13.569Z,18.03
2018-09-08T17:42:42.597Z,17.95
2018-09-08T17:45:11.593Z,17.89
2018-09-08T17:47:40.484Z,17.77
2018-09-08T17:50:09.454Z,17.62
2018-09-08T17:52:38.336Z,17.45
2018-09-08T17:55:07.289Z,17.31
2018-09-08T17:57:36.306Z,17.19
2018-09-08T18:00:05.581Z,17.05
2018-09-08T18:02:34.467Z,16.97
2018-09-08T18:05:03.453Z,16.90
2018-09-08T18:07:32.429Z,16.82
2018-09-08T18:10:01.353Z,16.75
2018-09-08T18:12:30.341Z,16.73
2018-09-08T18:14:59.347Z,16.69
2018-09-08T18:17:28.438Z,16.65
2018-09-08T18:19:57.165Z,16.57
2018-09-08T18:22:26.053Z,16.51
2018-09-08T18:24:54.962Z,16.44
2018-09-08T18:27:23.937Z,16.34
2018-09-08T18:29:52.967Z,16.23
2018-09-08T18:32:22.067Z,16.10
2018-09-08T18:34:50.977Z,16.02
2018-09-08T18:37:19.893Z,15.95
2018-09-08T18:39:48.889Z,15.86
2018-09-08T18:42:18.033Z,15.80
2018-09-08T18:44:46.948Z,15.75
2018-09-08T18:47:15.896Z,15.75
2018-09-08T18:49:44.732Z,15.73
2018-09-08T18:52:13.590Z,15.69
2018-09-08T18:54:42.475Z,15.63
2018-09-08T18:57:11.715Z,15.60
2018-09-08T18:59:40.634Z,15.62
2018-09-08T19:02:09.511Z,15.69
2018-09-08T19:04:38.332Z,15.79
2018-09-08T19:07:07.256Z,15.96
2018-09-08T19:09:36.212Z,16.08
2018-09-08T19:12:05.257Z,16.12
2018-09-08T19:14:39.352Z,16.11
2018-09-08T19:17:08.352Z,16.01
2018-09-08T19:19:37.257Z,15.91
2018-09-08T19:22:06.318Z,15.78
2018-09-08T19:24:40.407Z,15.69
2018-09-08T19:27:09.309Z,15.57
2018-09-08T19:29:44.409Z,15.46
2018-09-08T19:32:13.410Z,15.34
2018-09-08T19:34:42.294Z,15.23
2018-09-08T19:37:11.296Z,15.11
2018-09-08T19:39:40.253Z,14.97
2018-09-08T19:42:09.232Z,14.87
2018-09-08T19:44:38.107Z,14.80
2018-09-08T19:47:12.223Z,14.70
2018-09-08T19:49:41.101Z,14.63
2018-09-08T19:53:12.830Z,14.55
2018-09-08T19:55:41.712Z,14.31
2018-09-08T19:58:15.859Z,14.13
2018-09-08T20:00:44.876Z,14.00
2018-09-08T20:03:14.018Z,13.88
2018-09-08T20:05:43.097Z,13.78
2018-09-08T20:08:12.098Z,13.70
2018-09-08T20:10:41.062Z,13.68
2018-09-08T20:13:09.932Z,13.70
2018-09-08T20:15:38.833Z,13.75
2018-09-08T20:18:07.801Z,13.82
2018-09-08T20:20:36.744Z,13.89
2018-09-08T20:23:05.592Z,13.94
2018-09-08T20:25:34.529Z,13.97
2018-09-08T20:28:03.516Z,14.02
2018-09-08T20:30:32.460Z,14.07
2018-09-08T20:33:01.420Z,14.09
2018-09-08T20:35:30.350Z,14.12
2018-09-08T20:37:59.212Z,14.15
2018-09-08T20:40:28.132Z,14.14
2018-09-08T20:42:56.963Z,14.14
2018-09-08T20:45:25.776Z,14.13
2018-09-08T20:47:54.818Z,14.12
2018-09-08T20:50:23.808Z,14.11
2018-09-08T20:52:52.720Z,14.12
2018-09-08T20:55:21.587Z,14.18
2018-09-08T20:57:50.398Z,14.21
2018-09-08T21:00:19.249Z,14.22
2018-09-08T21:02:48.182Z,14.23
2018-09-08T21:05:17.077Z,14.24
2018-09-08T21:07:46.053Z,14.25
2018-09-08T21:10:14.989Z,14.24
2018-09-08T21:12:43.976Z,14.26
2018-09-08T21:15:12.860Z,14.27
2018-09-08T21:17:41.780Z,14.29
2018-09-08T21:20:10.560Z,14.31
2018-09-08T21:22:39.479Z,14.30
2018-09-08T21:25:08.314Z,14.25
2018-09-08T21:27:37.376Z,14.23
2018-09-08T21:30:06.342Z,14.22
2018-09-08T21:32:35.348Z,14.23
2018-09-08T21:35:04.431Z,14.23
2018-09-08T21:37:33.436Z,14.26
2018-09-08T21:40:05.506Z,14.24
2018-09-08T21:42:34.363Z,14.22
2018-09-08T21:45:03.411Z,14.18
2018-09-08T21:47:32.296Z,14.18
2018-09-08T21:50:01.235Z,14.17
2018-09-08T21:52:30.070Z,14.17
2018-09-08T21:54:59.068Z,14.16
2018-09-08T21:57:28.088Z,14.17
2018-09-08T21:59:56.935Z,14.17
2018-09-08T22:02:25.913Z,14.16
2018-09-08T22:04:54.761Z,14.13
2018-09-08T22:07:23.756Z,14.09
2018-09-08T22:09:52.664Z,14.08
2018-09-08T22:12:21.646Z,14.07
2018-09-08T22:14:50.564Z,14.07
2018-09-08T22:17:19.496Z,14.09
2018-09-08T22:19:48.465Z,14.09
2018-09-08T22:22:17.680Z,14.07
2018-09-08T22:24:46.640Z,14.05
2018-09-08T22:27:15.568Z,14.03
2018-09-08T22:29:44.563Z,14.04
2018-09-08T22:32:13.432Z,14.02
2018-09-08T22:34:42.454Z,14.00
2018-09-08T22:37:11.392Z,13.98
2018-09-08T22:39:40.479Z,13.98
2018-09-08T22:42:09.404Z,13.97
2018-09-08T22:44:38.534Z,13.99
2018-09-08T22:47:07.698Z,14.04
2018-09-08T22:49:36.665Z,14.05
2018-09-08T22:52:05.614Z,14.09
2018-09-08T22:54:34.550Z,14.16
2018-09-08T22:57:03.383Z,14.20
2018-09-08T22:59:32.269Z,14.21
2018-09-08T23:02:01.085Z,14.24
2018-09-08T23:04:30.088Z,14.24
2018-09-08T23:06:59.021Z,14.23
2018-09-08T23:09:27.837Z,14.20
2018-09-08T23:11:56.761Z,14.15
2018-09-08T23:14:25.614Z,14.08
2018-09-08T23:16:54.531Z,13.99
2018-09-08T23:19:23.351Z,13.91
2018-09-08T23:21:52.269Z,13.83
2018-09-08T23:24:21.210Z,13.73
2018-09-08T23:26:50.122Z,13.66
2018-09-08T23:29:19.152Z,13.60
2018-09-08T23:31:48.072Z,13.56
2018-09-08T23:34:17.173Z,13.54
2018-09-08T23:36:46.081Z,13.55
2018-09-08T23:39:15.044Z,13.52
2018-09-08T23:41:43.866Z,13.49
2018-09-08T23:44:12.859Z,13.38
2018-09-08T23:46:42.793Z,13.27
2018-09-08T23:49:11.761Z,13.20
2018-09-08T23:51:40.721Z,13.12
2018-09-08T23:54:09.623Z,13.05
2018-09-08T23:56:38.586Z,13.00
2018-09-08T23:59:07.466Z,12.98
